Unicom:                    122.8

AWOS:                  118.275

Elevation           1458’ MSL

TPA:                   2500’ MSL

06/24:         5003’ L   75’ W

PAPI:       06/Left     24/Left

(Operate lights on unicom freq.)

Traffic Pattern: Left

Beacon: Sunset to Sunrise

Windsock: yes, lighted

Segmented Circle: No

 

Cleveland Center: 126.72/291.65

FSS: Altoona

[Source: ADDS]
METAR
KFKL 290956Z AUTO 00000KT 10SM SCT016 OVC033 02/02 A3011 RMK AO2 SLP211 T00220022 FZRANO =
KFKL 290531Z 2906/3006 16003KT P6SM OVC025 FM292000 15008KT P6SM SCT035 BKN250 FM300100 14014G22KT P6SM OVC100
TAF
KFKL 290531Z 2906/3006 16003KT P6SM OVC025 FM292000 15008KT P6SM SCT035 BKN250 FM300100 14014G22KT P6SM OVC100 =
[Source: ADDS]
METAR
KDUJ 290953Z AUTO 00000KT 10SM OVC032 01/M01 A3009 RMK AO2 SLP205 T00111011 =
KDUJ 290531Z 2906/3006 00000KT P6SM OVC025 FM291100 16006KT P6SM OVC015 FM291800 16008KT P6SM BKN025 FM292000 15008KT P6SM SCT035 BKN060
TAF
KDUJ 290531Z 2906/3006 00000KT P6SM OVC025 FM291100 16006KT P6SM OVC015 FM291800 16008KT P6SM BKN025 FM292000 15008KT P6SM SCT035 BKN060 =

Airport Information. 

Runway Length: 5003ft x 75ft

Runways 6/24

Traffic Pattern: Left

PAPI’s: 2 light PAPI on left of both 6/24

TPA: 2500 msl

Field Elevation: 1458 msl

Surface: Asphalt

Beacon: Operates Sunset-Sunrise

Pilot Controlled Lighting:  yes 122.8

 

Fuel:

Jet-A w/prist

100 LL

Center point fueling available upon request.

 

Unicom Frequency: 122.8

AWOS Frequency: 118.27  (814-227-2899)

 

Cleveland Center: 126.72 (440-774-0442)

 

GPS Approach Plates for 6/24 download here: http://www.airnav.com/airport/KAXQ

[Source: ADDS]
METAR
KFKL 290956Z AUTO 00000KT 10SM SCT016 OVC033 02/02 A3011 RMK AO2 SLP211 T00220022 FZRANO =
KFKL 290531Z 2906/3006 16003KT P6SM OVC025 FM292000 15008KT P6SM SCT035 BKN250 FM300100 14014G22KT P6SM OVC100
TAF
KFKL 290531Z 2906/3006 16003KT P6SM OVC025 FM292000 15008KT P6SM SCT035 BKN250 FM300100 14014G22KT P6SM OVC100 =
[Source: ADDS]
METAR
KDUJ 290953Z AUTO 00000KT 10SM OVC032 01/M01 A3009 RMK AO2 SLP205 T00111011 =
KDUJ 290531Z 2906/3006 00000KT P6SM OVC025 FM291100 16006KT P6SM OVC015 FM291800 16008KT P6SM BKN025 FM292000 15008KT P6SM SCT035 BKN060
TAF
KDUJ 290531Z 2906/3006 00000KT P6SM OVC025 FM291100 16006KT P6SM OVC015 FM291800 16008KT P6SM BKN025 FM292000 15008KT P6SM SCT035 BKN060 =
The Clarion County Airport Authority Meetings for 2022 will be held the third Tuesday of each month at 7PM (1900 Hours) in the Airport Conference Room.